Time;durP1;ratioP1;P1;durP2;ratioP2;P2;SDS_P1;SDS_P2;PMS_P1;PMS_P2;Temp;Humidity;BMP_temperature;BMP_pressure;BME280_temperature;BME280_humidity;BME280_pressure;Samples;Min_cycle;Max_cycle;Signal;HPM_P1;HPM_P2
2023/09/04 00:00:44;;;;;;;4.88;1.88;;;23.90;87.20;;;;;;5015441;28;20034;-70
2023/09/04 00:03:10;;;;;;;2.55;1.73;;;23.90;87.20;;;;;;5013779;28;20041;-68
2023/09/04 00:05:35;;;;;;;4.68;2.05;;;24.00;87.70;;;;;;5015154;28;20041;-69
2023/09/04 00:08:02;;;;;;;11.52;1.88;;;23.90;87.50;;;;;;5015026;28;20447;-70
2023/09/04 00:10:28;;;;;;;4.30;1.52;;;23.90;86.90;;;;;;5014854;28;20050;-68
2023/09/04 00:12:54;;;;;;;7.70;1.85;;;24.00;86.60;;;;;;5015138;28;20037;-69
2023/09/04 00:15:20;;;;;;;5.05;1.50;;;23.90;85.60;;;;;;5014641;28;20030;-69
2023/09/04 00:17:49;;;;;;;2.47;1.35;;;23.90;85.30;;;;;;5014787;28;20438;-69
2023/09/04 00:20:16;;;;;;;2.95;1.60;;;23.90;84.90;;;;;;5014416;28;20030;-69
2023/09/04 00:22:41;;;;;;;5.90;1.67;;;23.90;84.90;;;;;;5015124;28;20497;-69
2023/09/04 00:25:07;;;;;;;5.15;1.70;;;23.90;85.40;;;;;;5014445;28;20034;-69
2023/09/04 00:27:33;;;;;;;3.58;1.60;;;23.90;85.60;;;;;;5014546;28;20109;-69
2023/09/04 00:29:59;;;;;;;2.63;1.80;;;23.80;85.70;;;;;;5014593;28;20029;-68
2023/09/04 00:32:25;;;;;;;4.25;1.70;;;23.90;85.80;;;;;;5014912;28;20026;-70
2023/09/04 00:34:50;;;;;;;2.67;1.60;;;23.80;86.10;;;;;;5012248;28;20030;-69
2023/09/04 00:37:16;;;;;;;2.03;1.77;;;23.80;86.20;;;;;;5012007;28;20433;-70
2023/09/04 00:39:42;;;;;;;3.88;1.55;;;23.70;86.20;;;;;;5013383;28;20033;-70
2023/09/04 00:42:10;;;;;;;2.80;1.58;;;23.80;86.20;;;;;;5014566;28;20037;-69
2023/09/04 00:44:36;;;;;;;4.60;1.80;;;23.70;86.20;;;;;;5014292;28;20103;-69
2023/09/04 00:47:02;;;;;;;3.35;1.80;;;23.70;86.80;;;;;;5014223;28;20032;-69
2023/09/04 00:49:29;;;;;;;3.83;1.70;;;23.70;86.90;;;;;;5014156;28;20449;-70
2023/09/04 00:51:56;;;;;;;5.07;1.90;;;23.70;86.90;;;;;;5014136;28;20053;-69
2023/09/04 00:54:23;;;;;;;2.22;1.60;;;23.70;86.80;;;;;;5013035;28;20473;-69
2023/09/04 00:56:51;;;;;;;3.15;1.80;;;23.70;86.50;;;;;;5014323;28;20377;-69
2023/09/04 00:59:18;;;;;;;3.17;1.85;;;23.70;85.70;;;;;;5011381;28;20022;-70
2023/09/04 01:01:43;;;;;;;2.10;1.35;;;23.70;85.50;;;;;;5010110;28;20033;-70
2023/09/04 01:04:09;;;;;;;2.22;1.45;;;23.70;85.30;;;;;;5012025;28;20026;-68
2023/09/04 01:06:35;;;;;;;2.75;1.70;;;23.60;85.40;;;;;;5013543;28;20038;-68
2023/09/04 01:09:01;;;;;;;3.90;1.60;;;23.60;85.30;;;;;;5014022;28;20026;-71
2023/09/04 01:11:39;;;;;;;1.83;1.40;;;23.60;85.00;;;;;;5013927;28;20061;-69
2023/09/04 01:14:14;;;;;;;3.25;1.60;;;23.60;84.70;;;;;;5013964;28;20045;-68
2023/09/04 01:16:41;;;;;;;2.42;1.60;;;23.60;84.60;;;;;;5013877;28;20014;-69
2023/09/04 01:19:10;;;;;;;3.85;1.58;;;23.60;84.30;;;;;;5013927;28;20084;-69
2023/09/04 01:21:37;;;;;;;3.15;1.50;;;23.60;84.10;;;;;;5013621;28;20097;-69
2023/09/04 01:24:03;;;;;;;2.35;1.30;;;23.60;84.00;;;;;;5013754;28;20030;-69
2023/09/04 01:26:38;;;;;;;3.15;1.30;;;23.60;83.60;;;;;;5013609;28;20038;-69
2023/09/04 01:29:43;;;;;;;4.43;1.63;;;23.60;83.50;;;;;;5013411;28;20488;-69
2023/09/04 01:32:30;;;;;;;2.55;1.77;;;23.60;83.70;;;;;;4971418;28;20034;-69
2023/09/04 01:34:57;;;;;;;5.18;1.50;;;23.60;83.90;;;;;;5012127;28;20038;-70
2023/09/04 01:37:23;;;;;;;2.17;1.63;;;23.60;83.80;;;;;;5013191;28;20025;-70
2023/09/04 01:39:50;;;;;;;1.92;1.55;;;23.50;83.70;;;;;;5013255;28;20034;-69
2023/09/04 01:42:15;;;;;;;2.47;1.65;;;23.50;83.80;;;;;;5013459;28;20028;-68
2023/09/04 01:44:42;;;;;;;2.10;1.42;;;23.50;83.90;;;;;;5013162;28;20038;-69
2023/09/04 01:47:08;;;;;;;3.67;1.40;;;23.50;84.10;;;;;;5013148;28;20030;-70
2023/09/04 01:49:34;;;;;;;2.80;1.48;;;23.50;84.10;;;;;;5013346;28;20355;-69
2023/09/04 01:52:00;;;;;;;2.10;1.52;;;23.50;84.20;;;;;;5013212;28;20032;-68
2023/09/04 01:54:26;;;;;;;4.00;2.00;;;23.40;83.80;;;;;;5013213;28;20018;-68
2023/09/04 01:56:52;;;;;;;2.95;1.80;;;23.40;83.90;;;;;;5012953;28;20381;-68
2023/09/04 01:59:18;;;;;;;5.25;1.40;;;23.40;84.00;;;;;;5013232;28;20026;-69
2023/09/04 02:01:43;;;;;;;4.85;1.63;;;23.40;84.30;;;;;;5013018;28;20026;-69
2023/09/04 02:04:09;;;;;;;2.53;1.63;;;23.40;84.60;;;;;;5013235;28;20049;-68
2023/09/04 02:06:35;;;;;;;1.90;1.70;;;23.40;85.20;;;;;;5013073;28;20069;-70
2023/09/04 02:09:00;;;;;;;3.90;2.20;;;23.30;85.70;;;;;;5011848;28;20045;-69
2023/09/04 02:11:26;;;;;;;4.40;2.15;;;23.40;86.10;;;;;;5012795;28;20521;-69
2023/09/04 02:13:52;;;;;;;3.15;1.80;;;23.40;86.40;;;;;;5013252;28;20033;-69
2023/09/04 02:16:17;;;;;;;5.15;2.00;;;23.40;86.50;;;;;;5013070;28;20104;-69
2023/09/04 02:18:43;;;;;;;5.03;1.98;;;23.40;86.80;;;;;;5012828;28;20054;-68
2023/09/04 02:21:09;;;;;;;7.85;2.00;;;23.30;87.20;;;;;;5012548;28;20022;-69
2023/09/04 02:23:35;;;;;;;3.47;1.90;;;23.30;87.30;;;;;;5012842;28;20033;-70
2023/09/04 02:26:02;;;;;;;2.63;1.95;;;23.30;87.30;;;;;;5012944;28;20042;-70
2023/09/04 02:28:29;;;;;;;3.85;2.22;;;23.20;87.40;;;;;;5012947;28;20018;-69
2023/09/04 02:30:55;;;;;;;3.05;2.10;;;23.20;87.80;;;;;;5012636;28;20034;-69
2023/09/04 02:33:20;;;;;;;8.82;2.05;;;23.20;87.90;;;;;;5012823;28;20168;-69
2023/09/04 02:35:46;;;;;;;6.93;2.00;;;23.20;88.20;;;;;;5012627;28;20540;-69
2023/09/04 02:38:12;;;;;;;3.85;2.15;;;23.20;88.50;;;;;;5012593;28;20109;-69
2023/09/04 02:40:38;;;;;;;8.18;2.13;;;23.20;88.70;;;;;;5012915;28;20029;-69
2023/09/04 02:43:03;;;;;;;4.70;2.03;;;23.10;88.50;;;;;;5012905;28;20030;-69
2023/09/04 02:45:29;;;;;;;8.85;2.10;;;23.10;88.70;;;;;;5016469;28;20037;-68
2023/09/04 02:47:55;;;;;;;5.13;1.92;;;23.10;88.80;;;;;;5016547;28;20433;-69
2023/09/04 02:50:20;;;;;;;3.65;2.10;;;23.10;89.00;;;;;;5016279;28;20022;-69
2023/09/04 02:52:46;;;;;;;4.15;2.30;;;23.10;89.20;;;;;;5016622;28;20331;-68
2023/09/04 02:55:12;;;;;;;4.53;2.00;;;23.10;89.30;;;;;;5016366;28;20105;-68
2023/09/04 02:57:38;;;;;;;5.00;2.17;;;23.10;89.60;;;;;;5016869;28;20451;-69
2023/09/04 03:00:06;;;;;;;4.90;2.30;;;23.00;89.80;;;;;;5016036;28;20053;-68
2023/09/04 03:02:33;;;;;;;6.38;3.20;;;23.10;90.00;;;;;;5016685;28;20033;-69
2023/09/04 03:04:58;;;;;;;3.97;2.08;;;23.00;90.10;;;;;;5016496;28;20041;-69
2023/09/04 03:07:27;;;;;;;5.68;2.60;;;23.00;89.70;;;;;;5016052;28;20030;-69
2023/09/04 03:09:57;;;;;;;4.90;2.55;;;22.90;89.90;;;;;;5016513;28;20117;-69
2023/09/04 03:12:29;;;;;;;6.65;2.30;;;22.80;90.10;;;;;;5016438;28;20022;-69
2023/09/04 03:14:58;;;;;;;4.22;2.13;;;22.80;90.20;;;;;;5016148;28;20377;-69
2023/09/04 03:17:24;;;;;;;3.65;2.30;;;22.70;90.30;;;;;;5015789;28;20061;-69
2023/09/04 03:19:52;;;;;;;8.65;2.55;;;22.70;90.40;;;;;;5016167;28;20049;-69
2023/09/04 03:22:18;;;;;;;5.55;2.40;;;22.70;90.50;;;;;;5016037;28;20026;-69
2023/09/04 03:24:43;;;;;;;2.72;2.13;;;22.70;90.50;;;;;;5015684;28;20180;-70
2023/09/04 03:27:09;;;;;;;4.15;2.45;;;22.60;90.50;;;;;;5015703;28;20026;-69
2023/09/04 03:29:35;;;;;;;5.70;2.13;;;22.60;90.60;;;;;;5015841;28;20394;-69
2023/09/04 03:32:01;;;;;;;4.85;2.10;;;22.70;90.50;;;;;;5015850;28;20064;-69
2023/09/04 03:34:28;;;;;;;3.63;2.38;;;22.60;90.40;;;;;;5016168;28;20022;-69
2023/09/04 03:36:54;;;;;;;6.53;2.35;;;22.70;90.30;;;;;;5015643;28;20129;-69
2023/09/04 03:39:20;;;;;;;3.95;2.28;;;22.60;90.30;;;;;;5015824;28;20061;-70
2023/09/04 03:41:45;;;;;;;3.00;1.90;;;22.60;90.00;;;;;;5015537;28;20026;-70
2023/09/04 03:44:11;;;;;;;2.83;1.63;;;22.50;89.20;;;;;;5015569;28;20096;-69
2023/09/04 03:46:37;;;;;;;7.75;2.10;;;22.50;89.40;;;;;;5015432;28;20030;-69
2023/09/04 03:49:02;;;;;;;4.68;2.10;;;22.50;89.50;;;;;;5015681;28;20105;-69
2023/09/04 03:51:28;;;;;;;2.90;1.92;;;22.50;89.60;;;;;;5014040;28;20075;-69
2023/09/04 03:53:54;;;;;;;4.80;2.03;;;22.50;89.80;;;;;;5015469;28;20026;-69
2023/09/04 03:56:19;;;;;;;2.70;1.92;;;22.50;90.00;;;;;;5013384;28;20025;-69
2023/09/04 03:58:45;;;;;;;6.03;2.30;;;22.50;90.10;;;;;;5014256;28;20014;-69
2023/09/04 04:01:11;;;;;;;5.68;2.20;;;22.50;90.10;;;;;;5014514;28;20106;-69
2023/09/04 04:03:37;;;;;;;4.82;2.35;;;22.50;90.20;;;;;;5014229;28;20029;-69
2023/09/04 04:06:13;;;;;;;3.97;2.03;;;22.50;90.30;;;;;;5013730;28;20040;-69
2023/09/04 04:08:39;;;;;;;4.75;2.50;;;22.50;90.40;;;;;;5013217;28;20025;-69
2023/09/04 04:11:06;;;;;;;5.07;2.22;;;22.40;90.40;;;;;;5013486;28;20057;-69
2023/09/04 04:13:31;;;;;;;4.13;2.40;;;22.40;90.50;;;;;;5013310;28;20470;-69
2023/09/04 04:15:59;;;;;;;4.10;2.30;;;22.40;90.50;;;;;;5013052;28;20030;-69
2023/09/04 04:18:26;;;;;;;4.55;2.15;;;22.40;90.60;;;;;;5013107;28;20010;-69
2023/09/04 04:20:52;;;;;;;2.80;1.80;;;22.40;90.60;;;;;;5012993;28;20040;-69
2023/09/04 04:23:18;;;;;;;7.10;2.33;;;22.40;90.60;;;;;;5014954;28;20057;-69
2023/09/04 04:25:44;;;;;;;3.88;1.80;;;22.30;90.40;;;;;;5014761;28;20065;-68
2023/09/04 04:28:09;;;;;;;3.50;1.95;;;22.40;90.30;;;;;;5014952;28;20030;-68
2023/09/04 04:30:35;;;;;;;2.05;1.85;;;22.40;90.30;;;;;;5014917;28;20033;-69
2023/09/04 04:33:02;;;;;;;3.15;2.00;;;22.30;90.20;;;;;;5014923;28;20029;-70
2023/09/04 04:35:27;;;;;;;4.97;2.03;;;22.40;90.20;;;;;;5014940;28;20033;-68
2023/09/04 04:37:53;;;;;;;5.00;1.90;;;22.30;89.90;;;;;;5014708;28;20022;-69
2023/09/04 04:40:20;;;;;;;4.07;2.33;;;22.30;89.70;;;;;;5014676;28;20116;-69
2023/09/04 04:42:46;;;;;;;3.50;2.25;;;22.30;89.70;;;;;;5014994;28;20054;-69
2023/09/04 04:45:12;;;;;;;4.32;2.13;;;22.30;89.80;;;;;;5014740;28;20445;-69
2023/09/04 04:47:38;;;;;;;5.18;2.10;;;22.30;89.90;;;;;;5014564;28;20094;-69
2023/09/04 04:50:04;;;;;;;2.25;1.92;;;22.30;89.80;;;;;;5014517;28;20041;-69
2023/09/04 04:52:29;;;;;;;3.15;1.70;;;22.20;89.50;;;;;;5014169;28;20116;-69
2023/09/04 04:54:55;;;;;;;2.90;1.95;;;22.30;89.00;;;;;;5014411;28;20517;-68
2023/09/04 04:57:21;;;;;;;4.13;2.50;;;22.30;88.80;;;;;;5014238;28;20022;-68
2023/09/04 04:59:46;;;;;;;4.68;2.30;;;22.30;88.90;;;;;;5014285;28;20030;-68
2023/09/04 05:02:13;;;;;;;2.90;1.92;;;22.30;88.90;;;;;;5014138;28;20030;-68
2023/09/04 05:04:44;;;;;;;7.53;2.03;;;22.30;89.00;;;;;;5014050;28;20029;-68
2023/09/04 05:07:10;;;;;;;5.07;2.42;;;22.30;89.20;;;;;;5013856;28;20034;-69
2023/09/04 05:09:37;;;;;;;5.82;2.25;;;22.30;89.90;;;;;;5014140;28;20026;-69
2023/09/04 05:12:03;;;;;;;6.53;2.20;;;22.30;90.00;;;;;;5014169;28;20382;-69
2023/09/04 05:14:29;;;;;;;5.20;2.10;;;22.30;90.00;;;;;;5014407;28;20032;-69
2023/09/04 05:16:55;;;;;;;4.40;2.20;;;22.30;90.10;;;;;;5013890;28;20040;-70
2023/09/04 05:19:21;;;;;;;6.13;2.00;;;22.30;90.10;;;;;;5014169;28;20540;-69
2023/09/04 05:21:47;;;;;;;3.80;2.80;;;22.30;90.10;;;;;;5014391;28;20026;-69
2023/09/04 05:24:13;;;;;;;5.40;2.20;;;22.30;89.60;;;;;;5014052;28;20077;-69
2023/09/04 05:26:39;;;;;;;2.78;2.05;;;22.30;89.20;;;;;;5014096;28;20367;-69
2023/09/04 05:29:05;;;;;;;2.65;1.88;;;22.40;88.80;;;;;;5013819;28;20028;-71
2023/09/04 05:31:30;;;;;;;4.47;2.03;;;22.40;88.80;;;;;;5013839;28;20453;-68
2023/09/04 05:33:56;;;;;;;3.28;1.90;;;22.40;88.30;;;;;;5013774;28;20022;-69
2023/09/04 05:36:22;;;;;;;2.72;2.00;;;22.40;87.70;;;;;;5013716;28;20466;-69
2023/09/04 05:38:48;;;;;;;4.25;2.15;;;22.40;87.40;;;;;;5013770;28;20034;-69
2023/09/04 05:41:15;;;;;;;3.80;1.83;;;22.50;87.10;;;;;;5013754;28;20022;-69
2023/09/04 05:43:41;;;;;;;5.45;2.10;;;22.50;86.90;;;;;;5013760;28;20083;-69
2023/09/04 05:46:06;;;;;;;2.60;2.00;;;22.50;86.70;;;;;;5013677;28;20419;-69
2023/09/04 05:48:35;;;;;;;2.65;2.20;;;22.50;87.00;;;;;;5013429;28;20026;-68
2023/09/04 05:51:04;;;;;;;4.07;2.05;;;22.50;87.10;;;;;;5013382;28;20034;-69
2023/09/04 05:53:29;;;;;;;6.68;2.28;;;22.50;86.80;;;;;;5013447;28;20080;-69
2023/09/04 05:56:11;;;;;;;4.95;1.92;;;22.50;86.40;;;;;;5013386;28;20414;-70
2023/09/04 05:58:49;;;;;;;3.22;2.10;;;22.60;86.20;;;;;;5013564;28;20030;-69
2023/09/04 06:01:15;;;;;;;4.00;2.25;;;22.60;86.50;;;;;;5013391;28;20435;-68
2023/09/04 06:03:43;;;;;;;3.42;2.30;;;22.60;86.90;;;;;;5013318;28;20022;-68
2023/09/04 06:06:09;;;;;;;6.88;2.20;;;22.60;87.30;;;;;;5013276;28;20041;-69
2023/09/04 06:08:35;;;;;;;3.05;1.98;;;22.60;87.70;;;;;;5013387;28;20028;-69
2023/09/04 06:11:02;;;;;;;3.13;2.20;;;22.60;87.60;;;;;;5012953;28;20050;-70
2023/09/04 06:13:28;;;;;;;4.07;1.83;;;22.60;87.00;;;;;;5011874;28;20026;-70
2023/09/04 06:15:53;;;;;;;5.10;2.40;;;22.70;86.70;;;;;;5012932;28;20052;-69
2023/09/04 06:18:19;;;;;;;3.17;2.15;;;22.70;86.20;;;;;;5011383;28;20046;-70
2023/09/04 06:20:46;;;;;;;4.47;2.28;;;22.70;85.70;;;;;;5013081;28;20037;-69
2023/09/04 06:23:12;;;;;;;2.53;2.10;;;22.70;85.60;;;;;;5013225;28;20033;-69
2023/09/04 06:25:42;;;;;;;3.45;2.40;;;22.80;85.60;;;;;;5013018;28;20037;-69
2023/09/04 06:28:10;;;;;;;2.90;2.13;;;22.80;85.90;;;;;;5013175;28;20482;-68
2023/09/04 06:30:36;;;;;;;4.18;2.20;;;22.80;85.30;;;;;;5013126;28;20489;-69
2023/09/04 06:33:02;;;;;;;4.10;2.13;;;22.90;84.40;;;;;;5013047;28;20060;-69
2023/09/04 06:35:28;;;;;;;3.08;2.67;;;22.80;84.70;;;;;;5012948;28;20059;-69
2023/09/04 06:37:55;;;;;;;4.60;3.00;;;22.90;84.80;;;;;;5013008;28;20097;-69
2023/09/04 06:40:21;;;;;;;6.32;2.20;;;22.90;84.60;;;;;;5013140;28;20544;-69
2023/09/04 06:42:47;;;;;;;6.05;2.35;;;23.00;84.60;;;;;;5013022;28;20041;-69
2023/09/04 06:45:13;;;;;;;4.38;2.30;;;23.00;84.50;;;;;;5012850;28;20038;-69
2023/09/04 06:47:39;;;;;;;4.28;2.65;;;23.00;84.50;;;;;;5013055;28;20421;-69
2023/09/04 06:50:07;;;;;;;7.00;2.50;;;23.00;84.30;;;;;;5012761;28;20030;-69
2023/09/04 06:52:32;;;;;;;6.53;2.42;;;23.00;83.50;;;;;;5011917;28;20022;-69
2023/09/04 06:54:58;;;;;;;2.47;1.98;;;;;;;;;;5012984;28;20398;-69
2023/09/04 06:57:24;;;;;;;5.78;2.20;;;23.10;82.30;;;;;;5012827;28;20080;-70
2023/09/04 06:59:50;;;;;;;3.72;2.20;;;23.10;82.80;;;;;;5012764;28;20034;-69
2023/09/04 07:02:16;;;;;;;4.65;2.40;;;23.10;82.50;;;;;;5012679;28;20034;-70
2023/09/04 07:04:43;;;;;;;2.75;2.20;;;23.10;82.50;;;;;;5012902;28;20033;-69
2023/09/04 07:07:10;;;;;;;3.30;2.20;;;23.10;82.80;;;;;;5012581;28;20076;-69
2023/09/04 07:09:35;;;;;;;3.55;2.45;;;23.20;82.40;;;;;;5012641;28;20022;-69
2023/09/04 07:12:01;;;;;;;5.68;2.28;;;23.20;82.20;;;;;;5012685;28;20026;-70
2023/09/04 07:14:27;;;;;;;2.70;2.42;;;23.20;82.30;;;;;;5012677;28;20052;-69
2023/09/04 07:16:52;;;;;;;2.85;2.15;;;23.20;82.40;;;;;;5012611;28;20018;-69
2023/09/04 07:19:18;;;;;;;2.63;2.22;;;23.20;82.40;;;;;;5012569;28;20458;-69
2023/09/04 07:21:44;;;;;;;7.03;2.30;;;23.30;82.10;;;;;;5012460;28;20489;-69
2023/09/04 07:24:09;;;;;;;3.15;2.20;;;23.30;82.00;;;;;;5012513;28;20029;-69
2023/09/04 07:26:35;;;;;;;3.75;2.17;;;23.30;81.70;;;;;;5012309;28;20504;-69
2023/09/04 07:29:01;;;;;;;4.03;2.17;;;23.40;81.40;;;;;;5012427;28;20471;-69
2023/09/04 07:31:28;;;;;;;2.95;2.47;;;23.40;81.30;;;;;;5013536;28;20030;-69
2023/09/04 07:33:54;;;;;;;5.38;2.40;;;23.50;81.30;;;;;;5015993;28;20033;-68
2023/09/04 07:36:20;;;;;;;3.15;2.35;;;23.50;80.50;;;;;;5016159;28;20030;-69
2023/09/04 07:38:46;;;;;;;3.42;2.33;;;23.60;80.40;;;;;;5015949;28;20018;-68
2023/09/04 07:41:12;;;;;;;4.75;2.70;;;23.60;81.10;;;;;;5015892;28;20032;-69
2023/09/04 07:43:38;;;;;;;5.30;2.30;;;23.60;81.00;;;;;;5015872;28;20033;-68
2023/09/04 07:46:04;;;;;;;3.28;2.30;;;23.60;80.90;;;;;;5015694;28;20126;-68
2023/09/04 07:48:30;;;;;;;3.60;2.08;;;23.70;80.10;;;;;;5015679;28;20025;-69
2023/09/04 07:50:56;;;;;;;2.97;2.20;;;23.70;79.00;;;;;;5014454;28;20084;-68
2023/09/04 07:53:23;;;;;;;3.63;2.13;;;23.70;78.70;;;;;;5015652;28;20033;-69
2023/09/04 07:55:49;;;;;;;3.50;2.40;;;23.80;79.30;;;;;;5015637;28;20026;-69
2023/09/04 07:58:15;;;;;;;5.00;2.22;;;23.80;78.10;;;;;;5015575;28;20466;-69
2023/09/04 08:00:49;;;;;;;3.72;2.20;;;23.80;78.40;;;;;;5015674;28;20038;-69
2023/09/04 08:03:15;;;;;;;3.22;2.33;;;23.80;78.30;;;;;;5015366;28;20492;-69
2023/09/04 08:05:41;;;;;;;3.88;2.30;;;23.80;78.80;;;;;;5015404;28;20399;-69
2023/09/04 08:08:09;;;;;;;3.80;2.25;;;23.90;78.20;;;;;;5015218;28;20076;-69
2023/09/04 08:10:39;;;;;;;7.43;3.58;;;23.90;77.80;;;;;;5015122;28;20057;-68
2023/09/04 08:13:06;;;;;;;2.30;2.10;;;24.00;78.00;;;;;;5015213;28;20021;-69
2023/09/04 08:15:32;;;;;;;4.40;1.80;;;24.00;77.90;;;;;;5015662;28;20104;-69
2023/09/04 08:17:58;;;;;;;3.28;2.00;;;24.00;78.40;;;;;;5015171;28;20105;-69
2023/09/04 08:20:23;;;;;;;2.95;2.10;;;24.00;77.40;;;;;;5015305;28;20034;-69
2023/09/04 08:22:50;;;;;;;4.32;2.00;;;24.10;77.00;;;;;;5015176;28;20022;-70
2023/09/04 08:25:15;;;;;;;1.95;1.73;;;24.10;76.80;;;;;;5014851;28;20514;-69
2023/09/04 08:27:41;;;;;;;2.63;2.25;;;24.20;76.70;;;;;;5014776;28;20050;-69
2023/09/04 08:30:07;;;;;;;4.32;2.30;;;24.20;76.30;;;;;;5015025;28;20053;-69
2023/09/04 08:32:33;;;;;;;2.08;1.83;;;24.20;76.50;;;;;;5015166;28;20030;-69
2023/09/04 08:34:58;;;;;;;2.55;2.20;;;24.20;76.70;;;;;;5014929;28;20022;-70
2023/09/04 08:37:24;;;;;;;4.25;2.10;;;24.30;76.50;;;;;;5014392;28;20030;-69
2023/09/04 08:39:50;;;;;;;2.28;2.05;;;24.30;76.40;;;;;;5014845;28;20061;-69
2023/09/04 08:42:16;;;;;;;3.67;2.10;;;24.30;76.50;;;;;;5014425;28;20037;-70
2023/09/04 08:44:43;;;;;;;3.75;2.17;;;24.40;76.60;;;;;;5014752;28;20076;-70
2023/09/04 08:47:10;;;;;;;6.00;2.38;;;24.40;74.40;;;;;;5014586;28;20113;-69
2023/09/04 08:49:37;;;;;;;3.38;2.10;;;24.50;74.30;;;;;;5014552;28;20032;-70
2023/09/04 08:52:05;;;;;;;6.35;2.40;;;24.50;74.70;;;;;;5014563;28;20113;-70
2023/09/04 08:54:33;;;;;;;3.80;1.90;;;24.50;74.60;;;;;;5014730;28;20022;-69
2023/09/04 08:56:59;;;;;;;2.13;1.85;;;24.50;74.30;;;;;;5014536;28;20026;-69
2023/09/04 08:59:25;;;;;;;4.80;2.08;;;24.60;73.80;;;;;;5015084;28;20402;-70
2023/09/04 09:01:53;;;;;;;4.75;2.08;;;24.60;74.30;;;;;;5014302;28;20026;-69
2023/09/04 09:04:21;;;;;;;2.85;1.98;;;24.60;74.60;;;;;;5013972;28;20038;-70
2023/09/04 09:06:51;;;;;;;3.47;2.28;;;24.70;74.90;;;;;;5014179;28;20458;-69
2023/09/04 09:09:20;;;;;;;3.85;1.77;;;24.70;74.90;;;;;;5013857;28;20060;-69
2023/09/04 09:11:46;;;;;;;3.83;2.00;;;24.80;73.80;;;;;;5013509;28;20541;-69
2023/09/04 09:14:15;;;;;;;3.85;1.88;;;24.80;73.60;;;;;;5013723;28;20026;-69
2023/09/04 09:16:41;;;;;;;4.90;1.85;;;24.80;74.40;;;;;;5013816;28;20083;-69
2023/09/04 09:19:10;;;;;;;3.60;2.08;;;24.90;75.10;;;;;;5013681;28;20492;-70
2023/09/04 09:21:35;;;;;;;4.32;1.90;;;24.90;74.70;;;;;;5013462;28;20026;-69
2023/09/04 09:24:19;;;;;;;2.92;1.85;;;25.00;74.60;;;;;;5013605;28;20026;-70
2023/09/04 09:26:47;;;;;;;2.10;1.80;;;25.00;74.60;;;;;;5013257;28;20111;-70
2023/09/04 09:29:13;;;;;;;2.40;1.90;;;25.00;73.00;;;;;;5013453;28;20033;-70
2023/09/04 09:31:42;;;;;;;3.65;1.92;;;25.10;72.80;;;;;;5013681;28;20030;-69
2023/09/04 09:34:09;;;;;;;4.57;2.15;;;25.10;73.00;;;;;;5013699;28;20080;-69
2023/09/04 09:36:35;;;;;;;5.00;2.00;;;25.10;72.80;;;;;;5013400;28;20037;-69
2023/09/04 09:39:02;;;;;;;6.78;2.10;;;25.20;72.50;;;;;;5013133;28;20033;-70
2023/09/04 09:41:29;;;;;;;3.70;2.00;;;25.20;70.60;;;;;;5013433;28;20486;-69
2023/09/04 09:43:55;;;;;;;3.35;2.17;;;25.20;70.80;;;;;;5013328;28;20097;-70
2023/09/04 09:46:20;;;;;;;2.92;2.03;;;25.20;71.90;;;;;;5013164;28;20477;-69
2023/09/04 09:48:46;;;;;;;2.15;1.58;;;25.30;72.00;;;;;;5013128;28;20025;-69
2023/09/04 09:51:13;;;;;;;3.50;1.67;;;25.30;71.30;;;;;;5013035;28;20084;-69
2023/09/04 09:53:50;;;;;;;2.35;1.70;;;25.40;71.30;;;;;;5011990;28;20029;-69
2023/09/04 09:56:18;;;;;;;4.70;1.92;;;25.40;71.20;;;;;;5013140;28;20418;-69
2023/09/04 09:58:46;;;;;;;3.25;1.95;;;25.50;71.90;;;;;;5013149;28;20022;-69
2023/09/04 10:01:13;;;;;;;2.10;1.67;;;25.50;70.60;;;;;;5012833;28;20025;-70
2023/09/04 10:03:39;;;;;;;2.15;1.75;;;25.60;70.20;;;;;;5013126;28;20029;-69
2023/09/04 10:06:07;;;;;;;2.70;1.77;;;25.60;70.80;;;;;;5013146;28;20128;-69
2023/09/04 10:08:42;;;;;;;2.47;1.85;;;25.70;70.80;;;;;;5013289;28;20104;-69
2023/09/04 10:11:12;;;;;;;3.60;1.70;;;25.70;70.20;;;;;;5012804;28;20072;-70
2023/09/04 10:13:48;;;;;;;2.45;1.83;;;25.70;69.40;;;;;;5012846;28;20022;-70
2023/09/04 10:16:18;;;;;;;4.70;1.75;;;25.70;69.50;;;;;;5012949;28;20052;-69
2023/09/04 10:18:46;;;;;;;6.00;1.98;;;25.80;69.80;;;;;;5013178;28;20425;-69
2023/09/04 10:21:16;;;;;;;2.58;1.80;;;25.90;71.10;;;;;;5012720;28;20034;-69
2023/09/04 10:23:53;;;;;;;2.63;1.83;;;25.90;71.20;;;;;;5012570;28;20033;-69
2023/09/04 10:26:27;;;;;;;5.57;1.67;;;26.00;71.00;;;;;;5012804;28;20065;-69
2023/09/04 10:29:03;;;;;;;2.30;1.92;;;26.10;70.70;;;;;;5012936;28;20083;-69
2023/09/04 10:31:32;;;;;;;3.67;1.80;;;26.10;70.10;;;;;;5012859;28;20022;-70
2023/09/04 10:34:00;;;;;;;4.28;1.98;;;26.20;70.70;;;;;;5012904;28;20036;-70
2023/09/04 10:36:28;;;;;;;3.97;1.90;;;26.20;68.70;;;;;;5012690;28;20014;-69
2023/09/04 10:38:54;;;;;;;9.32;1.80;;;26.20;68.60;;;;;;5012866;28;20105;-70
2023/09/04 10:41:21;;;;;;;2.97;1.80;;;26.30;68.70;;;;;;5012759;28;20359;-69
2023/09/04 10:43:46;;;;;;;3.38;1.83;;;26.30;67.00;;;;;;5012811;28;20018;-69
2023/09/04 10:46:13;;;;;;;4.97;2.03;;;26.30;66.90;;;;;;5012701;28;20443;-69
2023/09/04 10:48:43;;;;;;;3.00;1.90;;;26.40;66.60;;;;;;5012634;28;20108;-70
2023/09/04 10:51:29;;;;;;;4.20;1.95;;;26.40;68.10;;;;;;5012951;28;20392;-69
2023/09/04 10:53:59;;;;;;;3.83;1.92;;;26.50;69.00;;;;;;5012743;28;20022;-69
2023/09/04 10:56:25;;;;;;;3.60;2.00;;;26.60;68.50;;;;;;5012583;28;20390;-70
2023/09/04 10:59:06;;;;;;;2.35;1.50;;;26.60;68.10;;;;;;5012446;28;20037;-69
2023/09/04 11:01:34;;;;;;;2.50;1.70;;;26.70;67.60;;;;;;5012554;28;20048;-70
2023/09/04 11:04:02;;;;;;;3.85;2.05;;;26.80;66.60;;;;;;5012644;28;20034;-69
2023/09/04 11:06:28;;;;;;;2.80;1.75;;;26.80;65.10;;;;;;5015927;28;20456;-70
2023/09/04 11:08:54;;;;;;;2.28;1.90;;;26.80;64.30;;;;;;5016085;28;20028;-69
2023/09/04 11:11:25;;;;;;;3.03;1.95;;;26.80;65.60;;;;;;5016399;28;20046;-69
2023/09/04 11:14:06;;;;;;;3.10;1.80;;;26.90;66.30;;;;;;5016103;28;20450;-69
2023/09/04 11:16:48;;;;;;;2.35;1.70;;;26.90;66.60;;;;;;5016291;28;20389;-69
2023/09/04 11:19:16;;;;;;;2.85;1.80;;;27.00;67.00;;;;;;5016009;28;20517;-70
2023/09/04 11:21:46;;;;;;;3.03;1.77;;;27.00;67.60;;;;;;5015745;28;20022;-69
2023/09/04 11:24:12;;;;;;;4.88;2.05;;;27.10;67.10;;;;;;5015514;28;20034;-69
2023/09/04 11:26:38;;;;;;;4.05;1.95;;;27.20;65.70;;;;;;5015594;28;20045;-70
2023/09/04 11:29:05;;;;;;;2.05;1.60;;;27.30;64.30;;;;;;5015508;28;20454;-69
2023/09/04 11:31:32;;;;;;;6.50;1.75;;;27.40;64.80;;;;;;5015766;28;20041;-69
2023/09/04 11:33:59;;;;;;;2.95;1.70;;;27.40;62.30;;;;;;5015589;28;20486;-69
2023/09/04 11:36:25;;;;;;;1.98;1.60;;;27.40;63.10;;;;;;5015129;28;20029;-69
2023/09/04 11:39:04;;;;;;;3.03;1.77;;;27.50;64.90;;;;;;5015328;28;20108;-71
2023/09/04 11:41:30;;;;;;;2.58;2.00;;;27.60;65.10;;;;;;5015724;28;20037;-69
2023/09/04 11:43:55;;;;;;;2.97;1.80;;;27.60;66.20;;;;;;5015626;28;20018;-70
2023/09/04 11:46:21;;;;;;;2.10;1.67;;;27.70;65.70;;;;;;5015312;28;20041;-70
2023/09/04 11:48:48;;;;;;;3.38;1.90;;;27.80;65.20;;;;;;5015460;28;20014;-70
2023/09/04 11:51:14;;;;;;;7.50;1.77;;;27.80;64.60;;;;;;5015427;28;20088;-69
2023/09/04 11:53:40;;;;;;;3.58;1.80;;;27.90;64.00;;;;;;5015346;28;20460;-69
2023/09/04 11:56:06;;;;;;;3.38;1.88;;;27.90;62.70;;;;;;5015406;28;20394;-70
2023/09/04 11:58:33;;;;;;;5.35;1.70;;;27.90;62.10;;;;;;5015363;28;20026;-69
2023/09/04 12:00:59;;;;;;;2.90;1.90;;;27.90;63.10;;;;;;5015513;28;20045;-69
2023/09/04 12:03:25;;;;;;;2.60;1.67;;;27.90;63.30;;;;;;5015294;28;20022;-69
2023/09/04 12:05:53;;;;;;;2.17;1.65;;;28.00;63.00;;;;;;5015161;28;20041;-69
2023/09/04 12:08:19;;;;;;;3.53;2.00;;;28.00;62.10;;;;;;5015281;28;20088;-69
2023/09/04 12:10:45;;;;;;;2.15;1.70;;;28.10;63.40;;;;;;5014984;28;20096;-69
2023/09/04 12:13:12;;;;;;;3.88;1.80;;;28.20;63.00;;;;;;5015049;28;20022;-69
2023/09/04 12:15:38;;;;;;;2.15;1.70;;;28.20;62.60;;;;;;5014786;28;20018;-69
2023/09/04 12:18:05;;;;;;;5.43;1.80;;;28.30;61.10;;;;;;5014782;28;20022;-69
2023/09/04 12:20:42;;;;;;;2.42;1.83;;;28.30;61.50;;;;;;5015098;28;20109;-69
2023/09/04 12:23:08;;;;;;;2.20;1.88;;;28.40;62.30;;;;;;5015001;28;20022;-69
2023/09/04 12:25:44;;;;;;;4.47;1.63;;;28.50;61.00;;;;;;5014719;28;20038;-70
2023/09/04 12:28:14;;;;;;;2.10;1.60;;;28.50;61.30;;;;;;5030088;28;20426;-69
2023/09/04 12:30:45;;;;;;;2.10;1.73;;;28.60;62.00;;;;;;5014853;28;20034;-69
2023/09/04 12:33:18;;;;;;;4.10;2.03;;;28.60;60.60;;;;;;5014928;28;20109;-70
2023/09/04 12:35:44;;;;;;;3.85;1.50;;;28.70;61.00;;;;;;5014885;28;20049;-69
2023/09/04 12:38:10;;;;;;;2.63;1.98;;;28.70;61.70;;;;;;5014523;28;20034;-70
2023/09/04 12:40:36;;;;;;;3.28;1.98;;;28.80;61.60;;;;;;5014603;28;20040;-69
2023/09/04 12:43:03;;;;;;;3.28;1.60;;;28.80;60.50;;;;;;5014791;28;20026;-70
2023/09/04 12:45:28;;;;;;;3.53;1.88;;;28.90;57.90;;;;;;5014477;28;20137;-70
2023/09/04 12:47:57;;;;;;;3.92;1.75;;;28.80;58.40;;;;;;5014704;28;20192;-69